TAF KCMH
AMD KCMH 080251Z 0803/0824 VRB03KT 5SM -SN OVC035 TEMPO 0803/0807 2SM -SN OVC025 FM081000 14004KT P6SM OVC050 FM081600 23008KT P6SM SCT050 BKN100 FM082100 26008KT P6SM SCT250=
METAR KCMH
WC KCMH
WS KCMH
WV KCMH